Check out our new BloomSky Weather System.

Active alerts


No alerts


Thunder radar  blitzortung!


Rain radar more information rain snow radar


Visit our other weather sites:

Template documentation
and downloads

And another site



Weather Underground History page Text

Daily Summary for September 16, 2017 Units:  English    Metric   Both
« Previous Day
Next Day »
Daily Weekly Monthly Yearly Custom
  High: Low: Average:
Temperature: 93.4 °F 70.2 °F 81 °F
Dew Point: 77.9 °F 69.8 °F 72.8 °F
Humidity: 100 % 51 % 79 %
Wind Speed: 5.0 mph 0.0 mph 0.8 mph
Wind Gust: 8.0 mph - -
Wind:- - SE
Pressure: 30.02 in 29.91 in -
Precipitation: 0.00 in    
Historical Graphs
 
 
Tabular Data for September 16, 2017
Time Temperature Dew Point Pressure Wind Wind Speed Wind Gust Humidity Rainfall Rate (Hourly)
00:03 77.2 °F 73.9 °F 29.93 in SSE 1.0 mph 2.0 mph 90 % 0.00 in
00:08 77.2 °F 74.3 °F 29.93 in Calm   3.0 mph 91 % 0.00 in
00:13 77.0 °F 74.1 °F 29.93 in South 1.0 mph 3.0 mph 91 % 0.00 in
00:18 76.8 °F 73.9 °F 29.93 in SSW 1.0 mph 3.0 mph 91 % 0.00 in
00:23 76.6 °F 73.8 °F 29.93 in SSE 1.0 mph 3.0 mph 91 % 0.00 in
00:28 76.5 °F 73.6 °F 29.93 in SSE 1.0 mph 2.0 mph 91 % 0.00 in
00:33 76.3 °F 73.8 °F 29.93 in SSW 1.0 mph 2.0 mph 92 % 0.00 in
00:38 76.3 °F 73.8 °F 29.92 in SSE 1.0 mph 2.0 mph 92 % 0.00 in
00:43 75.9 °F 73.4 °F 29.92 in Calm   2.0 mph 92 % 0.00 in
00:48 75.9 °F 73.4 °F 29.92 in Calm   2.0 mph 92 % 0.00 in
00:53 75.7 °F 73.6 °F 29.92 in Calm   2.0 mph 93 % 0.00 in
00:58 75.6 °F 73.4 °F 29.92 in Calm   1.0 mph 93 % 0.00 in
01:03 75.4 °F 73.2 °F 29.92 in Calm   1.0 mph 93 % 0.00 in
01:08 75.0 °F 72.9 °F 29.92 in Calm   1.0 mph 93 % 0.00 in
01:13 74.8 °F 73.0 °F 29.92 in Calm     94 % 0.00 in
01:18 74.8 °F 73.0 °F 29.92 in Calm     94 % 0.00 in
01:23 74.5 °F 72.7 °F 29.92 in Calm     94 % 0.00 in
01:28 74.1 °F 72.3 °F 29.92 in Calm     94 % 0.00 in
01:33 73.9 °F 72.1 °F 29.91 in Calm     94 % 0.00 in
01:38 73.8 °F 72.0 °F 29.91 in Calm     94 % 0.00 in
01:43 73.6 °F 72.1 °F 29.91 in Calm     95 % 0.00 in
01:48 73.6 °F 72.3 °F 29.91 in Calm     96 % 0.00 in
01:53 73.6 °F 72.3 °F 29.91 in Calm     96 % 0.00 in
01:58 73.4 °F 72.1 °F 29.91 in Calm   1.0 mph 96 % 0.00 in
02:03 73.2 °F 72.0 °F 29.91 in Calm   1.0 mph 96 % 0.00 in
02:08 73.4 °F 72.1 °F 29.91 in Calm   1.0 mph 96 % 0.00 in
02:13 73.2 °F 72.3 °F 29.92 in Calm     97 % 0.00 in
02:18 73.2 °F 72.3 °F 29.92 in Calm     97 % 0.00 in
02:23 73.0 °F 72.1 °F 29.92 in Calm     97 % 0.00 in
02:28 72.9 °F 71.6 °F 29.92 in Calm     96 % 0.00 in
02:33 72.7 °F 71.4 °F 29.92 in Calm     96 % 0.00 in
02:38 72.7 °F 71.8 °F 29.92 in Calm     97 % 0.00 in
02:43 72.5 °F 71.6 °F 29.91 in Calm     97 % 0.00 in
02:48 72.3 °F 71.4 °F 29.91 in Calm     97 % 0.00 in
02:53 72.3 °F 71.4 °F 29.91 in Calm     97 % 0.00 in
02:58 72.0 °F 71.1 °F 29.91 in Calm     97 % 0.00 in
03:03 72.0 °F 71.1 °F 29.91 in Calm     97 % 0.00 in
03:08 72.0 °F 71.1 °F 29.91 in Calm     97 % 0.00 in
03:13 72.0 °F 71.1 °F 29.91 in Calm     97 % 0.00 in
03:18 72.0 °F 71.1 °F 29.91 in Calm     97 % 0.00 in
03:23 71.8 °F 70.9 °F 29.91 in Calm     97 % 0.00 in
03:29 71.6 °F 70.7 °F 29.91 in Calm     97 % 0.00 in
03:34 71.4 °F 70.5 °F 29.91 in Calm     97 % 0.00 in
03:39 71.4 °F 70.5 °F 29.91 in Calm     97 % 0.00 in
03:44 71.2 °F 70.7 °F 29.91 in Calm     98 % 0.00 in
03:49 71.1 °F 70.5 °F 29.91 in Calm     98 % 0.00 in
03:54 71.1 °F 70.5 °F 29.91 in Calm     98 % 0.00 in
03:59 71.2 °F 70.7 °F 29.91 in Calm     98 % 0.00 in
04:04 71.1 °F 70.5 °F 29.91 in Calm     98 % 0.00 in
04:09 71.1 °F 70.5 °F 29.91 in Calm     98 % 0.00 in
04:14 70.9 °F 70.3 °F 29.91 in Calm     98 % 0.00 in
04:19 71.1 °F 70.5 °F 29.91 in Calm     98 % 0.00 in
04:24 70.9 °F 70.3 °F 29.91 in Calm     98 % 0.00 in
04:29 70.9 °F 70.3 °F 29.91 in Calm     98 % 0.00 in
04:34 70.7 °F 70.2 °F 29.91 in Calm     98 % 0.00 in
04:39 70.5 °F 70.0 °F 29.91 in Calm     98 % 0.00 in
04:44 70.5 °F 70.0 °F 29.91 in Calm     98 % 0.00 in
04:49 70.5 °F 70.0 °F 29.91 in Calm     98 % 0.00 in
04:54 70.3 °F 69.8 °F 29.91 in Calm     98 % 0.00 in
04:59 70.5 °F 70.0 °F 29.91 in Calm     98 % 0.00 in
05:04 70.3 °F 69.8 °F 29.91 in Calm     98 % 0.00 in
05:09 70.3 °F 69.8 °F 29.91 in Calm     98 % 0.00 in
05:14 70.3 °F 70.0 °F 29.91 in Calm     99 % 0.00 in
05:19 70.3 °F 70.0 °F 29.92 in Calm     99 % 0.00 in
05:24 70.3 °F 69.8 °F 29.92 in Calm     98 % 0.00 in
05:29 70.2 °F 69.8 °F 29.92 in Calm     99 % 0.00 in
05:34 70.2 °F 69.8 °F 29.92 in Calm     99 % 0.00 in
05:39 70.3 °F 70.0 °F 29.92 in Calm     99 % 0.00 in
05:44 70.3 °F 70.0 °F 29.92 in Calm     99 % 0.00 in
05:49 70.3 °F 70.0 °F 29.93 in Calm     99 % 0.00 in
05:54 70.3 °F 70.0 °F 29.93 in Calm     99 % 0.00 in
05:59 70.5 °F 70.2 °F 29.93 in Calm     99 % 0.00 in
06:04 70.5 °F 70.2 °F 29.94 in Calm     99 % 0.00 in
06:09 70.5 °F 70.2 °F 29.94 in Calm     99 % 0.00 in
06:14 70.5 °F 70.2 °F 29.94 in Calm     99 % 0.00 in
06:19 70.3 °F 70.0 °F 29.94 in Calm     99 % 0.00 in
06:24 70.3 °F 70.0 °F 29.94 in Calm     99 % 0.00 in
06:30 70.3 °F 70.0 °F 29.94 in Calm     99 % 0.00 in
06:35 70.5 °F 70.2 °F 29.95 in Calm     99 % 0.00 in
06:40 70.5 °F 70.2 °F 29.95 in Calm     99 % 0.00 in
06:45 70.7 °F 70.3 °F 29.95 in Calm     99 % 0.00 in
06:50 70.9 °F 70.5 °F 29.96 in Calm   1.0 mph 99 % 0.00 in
06:55 70.7 °F 70.3 °F 29.96 in Calm   1.0 mph 99 % 0.00 in
07:00 70.7 °F 70.3 °F 29.96 in Calm   1.0 mph 99 % 0.00 in
07:05 70.9 °F 70.5 °F 29.96 in Calm     99 % 0.00 in
07:10 70.9 °F 70.5 °F 29.96 in Calm     99 % 0.00 in
07:15 71.1 °F 70.7 °F 29.97 in Calm   1.0 mph 99 % 0.00 in
07:20 71.2 °F 70.9 °F 29.96 in Calm   2.0 mph 99 % 0.00 in
07:25 71.2 °F 70.9 °F 29.97 in Calm   2.0 mph 99 % 0.00 in
07:30 71.4 °F 71.1 °F 29.97 in East 1.0 mph 1.0 mph 99 % 0.00 in
07:35 71.4 °F 71.1 °F 29.97 in Calm   1.0 mph 99 % 0.00 in
07:41 71.6 °F 71.2 °F 29.97 in Calm   1.0 mph 99 % 0.00 in
07:46 71.8 °F 71.4 °F 29.97 in Calm   1.0 mph 99 % 0.00 in
07:51 71.8 °F 71.4 °F 29.97 in Calm   1.0 mph 99 % 0.00 in
07:56 72.0 °F 71.6 °F 29.97 in Calm   1.0 mph 99 % 0.00 in
08:01 72.1 °F 72.1 °F 29.97 in Calm   1.0 mph 100 % 0.00 in
08:06 72.1 °F 71.8 °F 29.98 in East 1.0 mph 2.0 mph 99 % 0.00 in
08:11 72.1 °F 72.1 °F 29.98 in Calm   2.0 mph 100 % 0.00 in
08:16 72.3 °F 72.0 °F 29.98 in Calm   2.0 mph 99 % 0.00 in
08:21 72.5 °F 72.5 °F 29.98 in Calm   1.0 mph 100 % 0.00 in
08:26 72.7 °F 72.7 °F 29.98 in Calm   1.0 mph 100 % 0.00 in
08:31 72.7 °F 72.7 °F 29.98 in Calm   3.0 mph 100 % 0.00 in
08:36 72.9 °F 72.9 °F 29.98 in NNE 1.0 mph 3.0 mph 100 % 0.00 in
08:41 73.0 °F 73.0 °F 29.98 in Calm   3.0 mph 100 % 0.00 in
08:46 73.4 °F 73.4 °F 29.99 in SE 1.0 mph 2.0 mph 100 % 0.00 in
08:51 73.8 °F 73.8 °F 29.99 in ENE 1.0 mph 2.0 mph 100 % 0.00 in
08:56 73.8 °F 73.8 °F 29.99 in Calm   3.0 mph 100 % 0.00 in
09:01 74.1 °F 74.1 °F 29.99 in Calm   3.0 mph 100 % 0.00 in
09:06 74.8 °F 74.8 °F 29.99 in North 1.0 mph 3.0 mph 100 % 0.00 in
09:11 74.8 °F 74.8 °F 30.00 in Calm   3.0 mph 100 % 0.00 in
09:16 75.6 °F 75.6 °F 30.00 in Calm   2.0 mph 100 % 0.00 in
09:21 75.9 °F 75.6 °F 30.00 in Calm   2.0 mph 99 % 0.00 in
09:26 76.5 °F 76.1 °F 30.00 in Calm   2.0 mph 99 % 0.00 in
09:31 77.4 °F 76.8 °F 30.00 in NW 2.0 mph 2.0 mph 98 % 0.00 in
09:36 77.4 °F 76.5 °F 30.00 in NNW 1.0 mph 3.0 mph 97 % 0.00 in
09:41 78.3 °F 77.4 °F 30.00 in NW 1.0 mph 3.0 mph 97 % 0.00 in
09:46 79.2 °F 77.9 °F 30.01 in Calm   3.0 mph 96 % 0.00 in
09:51 79.9 °F 77.7 °F 30.01 in SE 2.0 mph 3.0 mph 93 % 0.00 in
09:56 80.2 °F 77.4 °F 30.01 in SE 1.0 mph 3.0 mph 91 % 0.00 in
10:01 81.1 °F 77.9 °F 30.01 in ESE 2.0 mph 3.0 mph 90 % 0.00 in
10:06 81.3 °F 77.4 °F 30.01 in ESE 1.0 mph 5.0 mph 88 % 0.00 in
10:11 81.7 °F 77.7 °F 30.01 in Calm   5.0 mph 88 % 0.00 in
10:16 81.9 °F 77.2 °F 30.02 in SE 2.0 mph 6.0 mph 86 % 0.00 in
10:21 81.7 °F 77.0 °F 30.02 in South 2.0 mph 6.0 mph 86 % 0.00 in
10:26 81.9 °F 77.2 °F 30.02 in NE 2.0 mph 6.0 mph 86 % 0.00 in
10:31 82.2 °F 76.8 °F 30.02 in SSE 1.0 mph 7.0 mph 84 % 0.00 in
10:36 82.8 °F 76.6 °F 30.01 in SE 3.0 mph 7.0 mph 82 % 0.00 in
10:41 82.8 °F 76.6 °F 30.02 in SE 1.0 mph 7.0 mph 82 % 0.00 in
10:46 83.1 °F 76.3 °F 30.01 in East 1.0 mph 6.0 mph 80 % 0.00 in
10:51 83.1 °F 76.6 °F 30.01 in East 3.0 mph 6.0 mph 81 % 0.00 in
10:56 83.1 °F 75.6 °F 30.02 in South 3.0 mph 6.0 mph 78 % 0.00 in
11:01 83.1 °F 75.6 °F 30.01 in East 2.0 mph 6.0 mph 78 % 0.00 in
11:07 84.0 °F 76.5 °F 30.01 in Calm   6.0 mph 78 % 0.00 in
11:12 84.7 °F 75.9 °F 30.01 in ESE 1.0 mph 5.0 mph 75 % 0.00 in
11:17 84.9 °F 76.8 °F 30.01 in Calm   4.0 mph 77 % 0.00 in
11:22 85.8 °F 77.0 °F 30.01 in South 3.0 mph 4.0 mph 75 % 0.00 in
11:27 86.5 °F 77.2 °F 30.01 in SSE 1.0 mph 6.0 mph 74 % 0.00 in
11:32 86.7 °F 76.6 °F 30.01 in Calm   6.0 mph 72 % 0.00 in
11:37 87.4 °F 75.6 °F 30.01 in Calm   6.0 mph 68 % 0.00 in
11:42 87.4 °F 75.6 °F 30.00 in NW 2.0 mph 4.0 mph 68 % 0.00 in
11:47 87.6 °F 74.3 °F 30.00 in ENE 1.0 mph 4.0 mph 65 % 0.00 in
11:52 87.3 °F 74.5 °F 30.00 in SSE 3.0 mph 5.0 mph 66 % 0.00 in
11:57 87.3 °F 75.0 °F 30.00 in SSE 1.0 mph 5.0 mph 67 % 0.00 in
12:02 87.3 °F 74.5 °F 30.00 in ESE 3.0 mph 5.0 mph 66 % 0.00 in
12:07 87.3 °F 75.9 °F 30.00 in Calm   5.0 mph 69 % 0.00 in
12:12 88.0 °F 74.7 °F 30.00 in Calm   5.0 mph 65 % 0.00 in
12:17 88.9 °F 76.1 °F 30.00 in Calm   4.0 mph 66 % 0.00 in
12:22 90.0 °F 76.1 °F 29.99 in East 2.0 mph 4.0 mph 64 % 0.00 in
12:27 90.1 °F 76.3 °F 29.99 in ENE 4.0 mph 4.0 mph 64 % 0.00 in
12:28 90.1 °F 74.8 °F 29.99 in NE 2.0 mph 4.0 mph 61 % 0.00 in
12:33 89.6 °F 75.4 °F 29.99 in WNW 3.0 mph 6.0 mph 63 % 0.00 in
12:38 89.8 °F 75.6 °F 29.99 in SE 1.0 mph 6.0 mph 63 % 0.00 in
12:43 89.8 °F 75.0 °F 29.99 in SE 5.0 mph 6.0 mph 62 % 0.00 in
12:48 89.4 °F 74.1 °F 29.99 in South 2.0 mph 6.0 mph 61 % 0.00 in
12:53 89.4 °F 75.6 °F 29.99 in ESE 2.0 mph 6.0 mph 64 % 0.00 in
12:58 89.4 °F 75.2 °F 29.99 in SW 1.0 mph 6.0 mph 63 % 0.00 in
13:03 90.3 °F 74.5 °F 29.99 in NE 1.0 mph 6.0 mph 60 % 0.00 in
13:08 90.9 °F 75.0 °F 29.98 in East 1.0 mph 6.0 mph 60 % 0.00 in
13:13 91.0 °F 74.1 °F 29.98 in ESE 2.0 mph 5.0 mph 58 % 0.00 in
13:18 90.3 °F 74.1 °F 29.98 in ESE 2.0 mph 6.0 mph 59 % 0.00 in
13:23 90.1 °F 74.8 °F 29.98 in East 3.0 mph 6.0 mph 61 % 0.00 in
13:28 90.0 °F 73.2 °F 29.98 in East 3.0 mph 6.0 mph 58 % 0.00 in
13:33 89.2 °F 73.6 °F 29.97 in Calm   6.0 mph 60 % 0.00 in
13:38 89.8 °F 74.5 °F 29.97 in NE 2.0 mph 4.0 mph 61 % 0.00 in
13:43 90.3 °F 74.5 °F 29.97 in ESE 1.0 mph 5.0 mph 60 % 0.00 in
13:48 90.7 °F 73.9 °F 29.97 in WSW 3.0 mph 5.0 mph 58 % 0.00 in
13:53 90.7 °F 73.9 °F 29.96 in NW 3.0 mph 5.0 mph 58 % 0.00 in
13:56 90.5 °F 72.7 °F 29.96 in East 2.0 mph 7.0 mph 56 % 0.00 in
14:01 90.3 °F 72.5 °F 29.96 in ENE 4.0 mph 8.0 mph 56 % 0.00 in
14:06 90.7 °F 73.9 °F 29.96 in ENE 1.0 mph 8.0 mph 58 % 0.00 in
14:11 90.9 °F 74.1 °F 29.96 in SSE 3.0 mph 8.0 mph 58 % 0.00 in
14:16 90.9 °F 73.6 °F 29.96 in East 1.0 mph 7.0 mph 57 % 0.00 in
14:21 91.0 °F 72.7 °F 29.95 in South 2.0 mph 5.0 mph 55 % 0.00 in
14:26 91.2 °F 74.8 °F 29.95 in NE 3.0 mph 4.0 mph 59 % 0.00 in
14:31 91.2 °F 72.9 °F 29.95 in NE 2.0 mph 4.0 mph 55 % 0.00 in
14:36 91.4 °F 74.5 °F 29.95 in East 1.0 mph 4.0 mph 58 % 0.00 in
14:41 92.5 °F 73.4 °F 29.95 in Calm   4.0 mph 54 % 0.00 in
14:46 93.0 °F 75.0 °F 29.95 in SE 4.0 mph 5.0 mph 56 % 0.00 in
14:51 92.8 °F 74.8 °F 29.94 in SE 3.0 mph 5.0 mph 56 % 0.00 in
14:56 92.5 °F 75.0 °F 29.94 in Calm   5.0 mph 57 % 0.00 in
15:01 92.7 °F 74.1 °F 29.94 in NE 4.0 mph 4.0 mph 55 % 0.00 in
15:06 92.5 °F 73.9 °F 29.94 in SSE 2.0 mph 5.0 mph 55 % 0.00 in
15:11 92.7 °F 73.6 °F 29.93 in ENE 3.0 mph 5.0 mph 54 % 0.00 in
15:16 92.3 °F 73.2 °F 29.93 in SE 3.0 mph 6.0 mph 54 % 0.00 in
15:21 91.2 °F 72.3 °F 29.93 in NW 1.0 mph 6.0 mph 54 % 0.00 in
15:26 90.7 °F 72.3 °F 29.93 in East 1.0 mph 6.0 mph 55 % 0.00 in
15:31 90.1 °F 72.3 °F 29.93 in SE 2.0 mph 5.0 mph 56 % 0.00 in
15:36 90.7 °F 72.3 °F 29.93 in Calm   5.0 mph 55 % 0.00 in
15:41 91.4 °F 72.3 °F 29.93 in South 2.0 mph 4.0 mph 54 % 0.00 in
15:42 91.4 °F 73.0 °F 29.93 in South 2.0 mph 4.0 mph 55 % 0.00 in
15:47 91.8 °F 72.7 °F 29.92 in Calm   4.0 mph 54 % 0.00 in
15:52 92.1 °F 73.0 °F 29.92 in ESE 3.0 mph 4.0 mph 54 % 0.00 in
15:57 91.9 °F 71.8 °F 29.92 in SSW 2.0 mph 6.0 mph 52 % 0.00 in
16:02 92.1 °F 74.1 °F 29.92 in SW 1.0 mph 6.0 mph 56 % 0.00 in
16:07 92.8 °F 73.2 °F 29.92 in Calm   6.0 mph 53 % 0.00 in
16:12 93.4 °F 73.0 °F 29.91 in ENE 2.0 mph 5.0 mph 52 % 0.00 in
16:17 92.8 °F 73.2 °F 29.91 in NNW 1.0 mph 5.0 mph 53 % 0.00 in
16:22 92.5 °F 73.9 °F 29.92 in Calm   6.0 mph 55 % 0.00 in
16:27 92.8 °F 73.2 °F 29.92 in NW 3.0 mph 6.0 mph 53 % 0.00 in
16:37 91.9 °F 72.9 °F 29.91 in NE 1.0 mph 6.0 mph 54 % 0.00 in
16:42 91.8 °F 72.7 °F 29.91 in ENE 2.0 mph 6.0 mph 54 % 0.00 in
16:47 91.8 °F 72.7 °F 29.91 in NW 2.0 mph 6.0 mph 54 % 0.00 in
16:52 91.0 °F 72.1 °F 29.91 in North 1.0 mph 4.0 mph 54 % 0.00 in
16:57 91.0 °F 72.7 °F 29.91 in NW 1.0 mph 4.0 mph 55 % 0.00 in
17:02 91.6 °F 72.0 °F 29.91 in WNW 1.0 mph 4.0 mph 53 % 0.00 in
17:07 92.1 °F 73.0 °F 29.91 in Calm   4.0 mph 54 % 0.00 in
17:12 92.7 °F 72.5 °F 29.91 in SSE 1.0 mph 2.0 mph 52 % 0.00 in
17:14 92.8 °F 72.0 °F 29.91 in NW 2.0 mph 2.0 mph 51 % 0.00 in
17:19 92.5 °F 72.3 °F 29.91 in NW 1.0 mph 4.0 mph 52 % 0.00 in
17:24 92.3 °F 71.6 °F 29.91 in Calm   4.0 mph 51 % 0.00 in
17:29 91.9 °F 71.8 °F 29.91 in Calm   4.0 mph 52 % 0.00 in
17:34 91.9 °F 71.8 °F 29.91 in ENE 1.0 mph 3.0 mph 52 % 0.00 in
17:39 91.6 °F 72.0 °F 29.91 in ENE 2.0 mph 5.0 mph 53 % 0.00 in
17:44 91.2 °F 72.3 °F 29.91 in NE 1.0 mph 5.0 mph 54 % 0.00 in
17:49 91.6 °F 73.0 °F 29.91 in Calm   5.0 mph 55 % 0.00 in
17:54 91.2 °F 72.9 °F 29.91 in North 3.0 mph 5.0 mph 55 % 0.00 in
17:59 91.0 °F 72.7 °F 29.92 in NW 1.0 mph 5.0 mph 55 % 0.00 in
18:04 91.0 °F 72.1 °F 29.91 in East 2.0 mph 5.0 mph 54 % 0.00 in
18:09 90.9 °F 73.0 °F 29.92 in ENE 3.0 mph 5.0 mph 56 % 0.00 in
18:14 90.3 °F 72.5 °F 29.91 in ENE 2.0 mph 4.0 mph 56 % 0.00 in
18:20 90.3 °F 72.5 °F 29.91 in Calm   4.0 mph 56 % 0.00 in
18:24 90.3 °F 72.0 °F 29.91 in NE 1.0 mph 5.0 mph 55 % 0.00 in
18:30 90.1 °F 72.3 °F 29.91 in NNW 1.0 mph 5.0 mph 56 % 0.00 in
18:35 90.0 °F 72.7 °F 29.91 in North 1.0 mph 5.0 mph 57 % 0.00 in
18:40 90.0 °F 72.7 °F 29.91 in Calm   4.0 mph 57 % 0.00 in
18:45 90.0 °F 72.1 °F 29.91 in ESE 1.0 mph 4.0 mph 56 % 0.00 in
18:50 89.8 °F 72.5 °F 29.91 in Calm   3.0 mph 57 % 0.00 in
18:55 89.2 °F 72.0 °F 29.91 in ESE 1.0 mph 4.0 mph 57 % 0.00 in
19:00 89.1 °F 71.8 °F 29.91 in Calm   4.0 mph 57 % 0.00 in
19:05 88.5 °F 71.8 °F 29.91 in Calm   4.0 mph 58 % 0.00 in
19:10 88.2 °F 72.0 °F 29.92 in North 2.0 mph 3.0 mph 59 % 0.00 in
19:15 87.6 °F 71.6 °F 29.91 in NE 1.0 mph 3.0 mph 59 % 0.00 in
19:20 87.3 °F 71.6 °F 29.91 in Calm   3.0 mph 60 % 0.00 in
19:25 86.7 °F 71.6 °F 29.91 in Calm   2.0 mph 61 % 0.00 in
19:30 86.4 °F 71.8 °F 29.91 in Calm   3.0 mph 62 % 0.00 in
19:35 86.0 °F 72.0 °F 29.92 in Calm   3.0 mph 63 % 0.00 in
19:40 85.6 °F 71.6 °F 29.92 in Calm   3.0 mph 63 % 0.00 in
19:45 85.3 °F 71.8 °F 29.92 in Calm   2.0 mph 64 % 0.00 in
19:50 84.9 °F 71.4 °F 29.92 in Calm   2.0 mph 64 % 0.00 in
19:55 84.6 °F 71.4 °F 29.92 in Calm   3.0 mph 65 % 0.00 in
20:00 84.4 °F 71.8 °F 29.92 in Calm   3.0 mph 66 % 0.00 in
20:05 84.2 °F 71.6 °F 29.92 in East 1.0 mph 3.0 mph 66 % 0.00 in
20:10 84.0 °F 72.0 °F 29.92 in Calm   2.0 mph 67 % 0.00 in
20:15 83.7 °F 71.6 °F 29.92 in Calm   2.0 mph 67 % 0.00 in
20:20 83.5 °F 71.4 °F 29.92 in East 1.0 mph 2.0 mph 67 % 0.00 in
20:25 83.1 °F 71.4 °F 29.92 in SE 2.0 mph 2.0 mph 68 % 0.00 in
20:30 83.1 °F 72.0 °F 29.92 in Calm   3.0 mph 69 % 0.00 in
20:35 82.9 °F 71.8 °F 29.93 in SE 1.0 mph 4.0 mph 69 % 0.00 in
20:40 82.9 °F 71.8 °F 29.93 in Calm   4.0 mph 69 % 0.00 in
20:45 82.8 °F 71.6 °F 29.93 in ESE 2.0 mph 4.0 mph 69 % 0.00 in
20:50 82.8 °F 72.0 °F 29.93 in ESE 1.0 mph 4.0 mph 70 % 0.00 in
20:55 82.6 °F 71.8 °F 29.94 in Calm   3.0 mph 70 % 0.00 in
21:00 82.4 °F 71.6 °F 29.94 in Calm   3.0 mph 70 % 0.00 in
21:05 82.2 °F 72.0 °F 29.94 in Calm   2.0 mph 71 % 0.00 in
21:10 82.0 °F 71.8 °F 29.94 in Calm   2.0 mph 71 % 0.00 in
21:15 81.9 °F 72.0 °F 29.94 in Calm   2.0 mph 72 % 0.00 in
21:20 81.7 °F 72.1 °F 29.95 in SE 1.0 mph 1.0 mph 73 % 0.00 in
21:25 81.7 °F 72.5 °F 29.95 in Calm   4.0 mph 74 % 0.00 in
21:30 81.5 °F 72.3 °F 29.95 in Calm   4.0 mph 74 % 0.00 in
21:35 81.3 °F 72.7 °F 29.95 in SE 2.0 mph 4.0 mph 75 % 0.00 in
21:40 81.3 °F 73.0 °F 29.95 in Calm   3.0 mph 76 % 0.00 in
21:45 81.1 °F 72.9 °F 29.96 in East 1.0 mph 3.0 mph 76 % 0.00 in
21:50 81.0 °F 72.7 °F 29.96 in ESE 1.0 mph 3.0 mph 76 % 0.00 in
21:55 80.8 °F 72.9 °F 29.96 in East 1.0 mph 3.0 mph 77 % 0.00 in
22:00 80.8 °F 72.9 °F 29.96 in ESE 2.0 mph 5.0 mph 77 % 0.00 in
22:01 80.8 °F 72.9 °F 29.96 in SE 2.0 mph 5.0 mph 77 % 0.00 in
22:06 80.8 °F 73.2 °F 29.96 in East 3.0 mph 6.0 mph 78 % 0.00 in
22:11 80.8 °F 73.2 °F 29.96 in SE 2.0 mph 6.0 mph 78 % 0.00 in
22:16 80.4 °F 72.9 °F 29.96 in SE 1.0 mph 6.0 mph 78 % 0.00 in
22:21 80.4 °F 73.2 °F 29.96 in SE 2.0 mph 4.0 mph 79 % 0.00 in
22:26 80.2 °F 73.0 °F 29.97 in SSE 1.0 mph 4.0 mph 79 % 0.00 in
22:27 80.2 °F 73.0 °F 29.97 in ESE 2.0 mph 4.0 mph 79 % 0.00 in
22:32 80.1 °F 73.0 °F 29.97 in ESE 2.0 mph 4.0 mph 79 % 0.00 in
22:37 80.1 °F 73.4 °F 29.97 in SE 2.0 mph 4.0 mph 80 % 0.00 in
22:42 79.9 °F 73.2 °F 29.97 in SE 1.0 mph 4.0 mph 80 % 0.00 in
22:47 79.5 °F 72.9 °F 29.97 in ESE 1.0 mph 3.0 mph 80 % 0.00 in
22:52 79.5 °F 73.2 °F 29.97 in Calm   2.0 mph 81 % 0.00 in
22:57 79.2 °F 72.9 °F 29.97 in Calm   2.0 mph 81 % 0.00 in
23:02 79.2 °F 72.9 °F 29.97 in Calm   2.0 mph 81 % 0.00 in
23:07 78.8 °F 72.9 °F 29.97 in East 1.0 mph 2.0 mph 82 % 0.00 in
23:12 78.6 °F 72.7 °F 29.97 in Calm   2.0 mph 82 % 0.00 in
23:17 78.4 °F 72.5 °F 29.97 in Calm   2.0 mph 82 % 0.00 in
23:22 78.3 °F 72.3 °F 29.97 in SE 1.0 mph 2.0 mph 82 % 0.00 in
23:27 78.3 °F 72.7 °F 29.97 in SE 1.0 mph 3.0 mph 83 % 0.00 in
23:32 78.1 °F 72.9 °F 29.97 in Calm   3.0 mph 84 % 0.00 in
23:37 78.1 °F 72.9 °F 29.97 in Calm   3.0 mph 84 % 0.00 in
23:42 78.1 °F 72.9 °F 29.97 in Calm   3.0 mph 84 % 0.00 in
23:47 77.7 °F 72.9 °F 29.97 in Calm   3.0 mph 85 % 0.00 in
23:52 77.5 °F 72.7 °F 29.97 in Calm   3.0 mph 85 % 0.00 in
23:57 77.4 °F 72.9 °F 29.97 in Calm   3.0 mph 86 % 0.00 in
Spring, Texas: Villages of Bridgestone
Compliments of Weather Underground - 2.75 mb

Script developed by  Jim McMurry - jmcmurry@mwt.net Adapted for the template by  Wim van der Kuil - Leuven-Template.eu

You find our weather info also at:

UK Metoffice

WeatherCloud

Weather Underground

Mid-South Weather Network

AWEKAS

Citizen Weather Observer Program (CWOP)

HAMweather, WeatherForYou, PWS Weather

Equipment we use:

Weather-station
Davis Vantage Vue

Weather-program
Meteohub

Weather-server
Debian 7.9 x86 (Guest)

Provider
DreamHost

Davis Vantage Vue

Meteohub

Debian 7.9 x86 (Guest)

DreamHost